首页
METAR-TAF:

METAR-TAF

机场 :

马格尼托哥尔斯克, 俄罗斯

纬度: 53-23-36N, 经度: 058-45-24E, 海拔: 436米

当前天气观测

该预报发布于22分钟前的20:00 UTC
风速12节,风向东北
温度 18°C
湿度 73%
气压 1015 hPa
能见度10公里或以上
多云层高于4000英尺, 积雨云.
雷暴

METAR: USCM 242000Z 04006MPS 9999 TS BKN040CB 18/13 Q1015 R36/090065 TEMPO VRB25MPS 1500 TSRA SQ VV005 RMK QFE723

时间: 01:22 (20:22 UTC)

预报

该预报发布于3小时和22分钟前的17:00 UTC
预报有效从24日的 18点(UTC)到 25日的 03点(UTC)
风速6节,风向西,有时为16节阵风
能见度10公里或以上
多云层高于3000英尺, 积雨云.
短暂存在
从 24日的 18点(UTC)到 25日的 03点(UTC)
风速29节,风向多变
能見度: 5000
多云层高于1500英尺, 积雨云.
雷暴, 小雨, 飑

TAF: USCM 241700Z 2418/2503 28003G08MPS 9999 BKN030CB TEMPO 2418/2503 VRB15MPS 5000 -TSRA SQ BKN015CB

超过4000个机场的气象观测和天气预报(METAR&TAF报告)。

可查询的气象台以黄色和红色小点在地图上表示。

将鼠标移到小点上方,可查看气象台名称。

然后点击查看天气观测和预报。

如需切换地图:点击带黑十字的绿色按钮放大地图;点击带横线的绿色按钮缩小地图;或者点击绿色箭头查看邻近地区的地图。


METAR-TAF: